sensor_id;sensor_type;location;lat;lon;timestamp;P1;durP1;ratioP1;P2;durP2;ratioP2
59649;SDS011;46162;57.568;25.814;2023-09-07T00:00:22;3.67;;;0.00;;
59649;SDS011;46162;57.568;25.814;2023-09-07T00:02:51;5.57;;;0.10;;
59649;SDS011;46162;57.568;25.814;2023-09-07T00:05:19;4.00;;;0.10;;
59649;SDS011;46162;57.568;25.814;2023-09-07T00:07:48;1.42;;;0.00;;
59649;SDS011;46162;57.568;25.814;2023-09-07T00:10:17;5.00;;;0.10;;
59649;SDS011;46162;57.568;25.814;2023-09-07T00:12:46;1.60;;;0.03;;
59649;SDS011;46162;57.568;25.814;2023-09-07T00:15:16;4.30;;;0.00;;
59649;SDS011;46162;57.568;25.814;2023-09-07T00:17:46;3.53;;;0.20;;
59649;SDS011;46162;57.568;25.814;2023-09-07T00:20:14;4.53;;;0.10;;
59649;SDS011;46162;57.568;25.814;2023-09-07T00:22:43;4.20;;;0.00;;
59649;SDS011;46162;57.568;25.814;2023-09-07T00:25:11;1.17;;;0.00;;
59649;SDS011;46162;57.568;25.814;2023-09-07T00:28:05;3.40;;;0.10;;
59649;SDS011;46162;57.568;25.814;2023-09-07T00:30:35;3.08;;;0.00;;
59649;SDS011;46162;57.568;25.814;2023-09-07T00:33:04;3.00;;;0.10;;
59649;SDS011;46162;57.568;25.814;2023-09-07T00:35:32;2.63;;;0.10;;
59649;SDS011;46162;57.568;25.814;2023-09-07T00:38:01;4.82;;;0.10;;
59649;SDS011;46162;57.568;25.814;2023-09-07T00:40:30;2.58;;;0.10;;
59649;SDS011;46162;57.568;25.814;2023-09-07T00:42:59;2.08;;;0.08;;
59649;SDS011;46162;57.568;25.814;2023-09-07T00:45:28;2.40;;;0.10;;
59649;SDS011;46162;57.568;25.814;2023-09-07T00:47:58;1.38;;;0.10;;
59649;SDS011;46162;57.568;25.814;2023-09-07T00:50:27;4.78;;;0.10;;
59649;SDS011;46162;57.568;25.814;2023-09-07T00:52:56;4.72;;;0.20;;
59649;SDS011;46162;57.568;25.814;2023-09-07T00:55:27;3.15;;;0.10;;
59649;SDS011;46162;57.568;25.814;2023-09-07T00:58:00;5.13;;;0.10;;
59649;SDS011;46162;57.568;25.814;2023-09-07T01:00:30;3.40;;;0.20;;
59649;SDS011;46162;57.568;25.814;2023-09-07T01:03:01;3.33;;;0.20;;
59649;SDS011;46162;57.568;25.814;2023-09-07T01:05:33;4.28;;;0.20;;
59649;SDS011;46162;57.568;25.814;2023-09-07T01:08:09;5.88;;;0.20;;
59649;SDS011;46162;57.568;25.814;2023-09-07T01:10:41;3.42;;;0.10;;
59649;SDS011;46162;57.568;25.814;2023-09-07T01:13:09;2.53;;;0.22;;
59649;SDS011;46162;57.568;25.814;2023-09-07T01:15:38;4.45;;;0.10;;
59649;SDS011;46162;57.568;25.814;2023-09-07T01:18:08;5.13;;;0.25;;
59649;SDS011;46162;57.568;25.814;2023-09-07T01:20:52;2.65;;;0.20;;
59649;SDS011;46162;57.568;25.814;2023-09-07T01:23:22;8.98;;;0.20;;
59649;SDS011;46162;57.568;25.814;2023-09-07T01:25:51;3.28;;;0.15;;
59649;SDS011;46162;57.568;25.814;2023-09-07T01:28:21;3.05;;;0.20;;
59649;SDS011;46162;57.568;25.814;2023-09-07T01:30:51;2.83;;;0.30;;
59649;SDS011;46162;57.568;25.814;2023-09-07T01:33:20;6.68;;;0.25;;
59649;SDS011;46162;57.568;25.814;2023-09-07T01:35:50;1.60;;;0.10;;
59649;SDS011;46162;57.568;25.814;2023-09-07T01:38:19;3.45;;;0.10;;
59649;SDS011;46162;57.568;25.814;2023-09-07T01:40:49;14.23;;;0.60;;
59649;SDS011;46162;57.568;25.814;2023-09-07T01:43:17;2.72;;;0.10;;
59649;SDS011;46162;57.568;25.814;2023-09-07T01:45:46;3.63;;;0.30;;
59649;SDS011;46162;57.568;25.814;2023-09-07T01:48:14;1.83;;;0.15;;
59649;SDS011;46162;57.568;25.814;2023-09-07T01:50:43;5.22;;;0.10;;
59649;SDS011;46162;57.568;25.814;2023-09-07T01:53:12;2.83;;;0.10;;
59649;SDS011;46162;57.568;25.814;2023-09-07T01:55:40;5.35;;;0.20;;
59649;SDS011;46162;57.568;25.814;2023-09-07T01:58:11;3.50;;;0.10;;
59649;SDS011;46162;57.568;25.814;2023-09-07T02:00:39;4.15;;;0.10;;
59649;SDS011;46162;57.568;25.814;2023-09-07T02:03:08;2.38;;;0.10;;
59649;SDS011;46162;57.568;25.814;2023-09-07T02:05:37;3.33;;;0.28;;
59649;SDS011;46162;57.568;25.814;2023-09-07T02:08:07;3.13;;;0.25;;
59649;SDS011;46162;57.568;25.814;2023-09-07T02:10:35;2.97;;;0.10;;
59649;SDS011;46162;57.568;25.814;2023-09-07T02:13:04;2.80;;;0.10;;
59649;SDS011;46162;57.568;25.814;2023-09-07T02:15:34;2.55;;;0.10;;
59649;SDS011;46162;57.568;25.814;2023-09-07T02:18:06;3.13;;;0.10;;
59649;SDS011;46162;57.568;25.814;2023-09-07T02:20:34;2.53;;;0.00;;
59649;SDS011;46162;57.568;25.814;2023-09-07T02:23:03;1.20;;;0.10;;
59649;SDS011;46162;57.568;25.814;2023-09-07T02:25:32;3.78;;;0.10;;
59649;SDS011;46162;57.568;25.814;2023-09-07T02:28:01;2.05;;;0.00;;
59649;SDS011;46162;57.568;25.814;2023-09-07T02:30:30;2.13;;;0.00;;
59649;SDS011;46162;57.568;25.814;2023-09-07T02:33:01;5.25;;;0.10;;
59649;SDS011;46162;57.568;25.814;2023-09-07T02:35:31;2.72;;;0.10;;
59649;SDS011;46162;57.568;25.814;2023-09-07T02:38:00;5.50;;;0.10;;
59649;SDS011;46162;57.568;25.814;2023-09-07T02:40:29;3.45;;;0.43;;
59649;SDS011;46162;57.568;25.814;2023-09-07T02:42:57;4.00;;;0.13;;
59649;SDS011;46162;57.568;25.814;2023-09-07T02:45:26;4.38;;;0.10;;
59649;SDS011;46162;57.568;25.814;2023-09-07T02:47:55;8.07;;;0.20;;
59649;SDS011;46162;57.568;25.814;2023-09-07T02:50:25;3.20;;;0.10;;
59649;SDS011;46162;57.568;25.814;2023-09-07T02:52:54;4.00;;;0.20;;
59649;SDS011;46162;57.568;25.814;2023-09-07T02:55:22;2.78;;;0.20;;
59649;SDS011;46162;57.568;25.814;2023-09-07T02:57:51;10.13;;;0.20;;
59649;SDS011;46162;57.568;25.814;2023-09-07T03:00:20;3.28;;;0.20;;
59649;SDS011;46162;57.568;25.814;2023-09-07T03:02:49;2.42;;;0.20;;
59649;SDS011;46162;57.568;25.814;2023-09-07T03:05:19;1.98;;;0.20;;
59649;SDS011;46162;57.568;25.814;2023-09-07T03:07:50;3.40;;;0.10;;
59649;SDS011;46162;57.568;25.814;2023-09-07T03:10:19;5.03;;;0.17;;
59649;SDS011;46162;57.568;25.814;2023-09-07T03:12:48;1.58;;;0.10;;
59649;SDS011;46162;57.568;25.814;2023-09-07T03:15:18;3.40;;;0.20;;
59649;SDS011;46162;57.568;25.814;2023-09-07T03:17:47;2.35;;;0.20;;
59649;SDS011;46162;57.568;25.814;2023-09-07T03:20:21;2.35;;;0.20;;
59649;SDS011;46162;57.568;25.814;2023-09-07T03:22:52;4.53;;;0.15;;
59649;SDS011;46162;57.568;25.814;2023-09-07T03:25:21;3.35;;;0.20;;
59649;SDS011;46162;57.568;25.814;2023-09-07T03:27:50;2.35;;;0.30;;
59649;SDS011;46162;57.568;25.814;2023-09-07T03:30:19;2.95;;;0.20;;
59649;SDS011;46162;57.568;25.814;2023-09-07T03:32:48;2.45;;;0.30;;
59649;SDS011;46162;57.568;25.814;2023-09-07T03:35:17;3.08;;;0.20;;
59649;SDS011;46162;57.568;25.814;2023-09-07T03:37:46;2.20;;;0.30;;
59649;SDS011;46162;57.568;25.814;2023-09-07T03:40:16;2.85;;;0.20;;
59649;SDS011;46162;57.568;25.814;2023-09-07T03:42:45;4.40;;;0.47;;
59649;SDS011;46162;57.568;25.814;2023-09-07T03:45:14;2.97;;;0.10;;
59649;SDS011;46162;57.568;25.814;2023-09-07T03:47:42;1.90;;;0.10;;
59649;SDS011;46162;57.568;25.814;2023-09-07T03:50:14;2.47;;;0.20;;
59649;SDS011;46162;57.568;25.814;2023-09-07T03:52:43;1.30;;;0.20;;
59649;SDS011;46162;57.568;25.814;2023-09-07T03:55:12;1.98;;;0.15;;
59649;SDS011;46162;57.568;25.814;2023-09-07T03:57:42;4.50;;;0.20;;
59649;SDS011;46162;57.568;25.814;2023-09-07T04:00:13;4.95;;;0.20;;
59649;SDS011;46162;57.568;25.814;2023-09-07T04:02:46;3.47;;;0.30;;
59649;SDS011;46162;57.568;25.814;2023-09-07T04:05:15;3.45;;;0.30;;
59649;SDS011;46162;57.568;25.814;2023-09-07T04:07:44;2.55;;;0.20;;
59649;SDS011;46162;57.568;25.814;2023-09-07T04:10:14;3.65;;;0.30;;
59649;SDS011;46162;57.568;25.814;2023-09-07T04:12:44;3.83;;;0.25;;
59649;SDS011;46162;57.568;25.814;2023-09-07T04:15:13;5.70;;;0.30;;
59649;SDS011;46162;57.568;25.814;2023-09-07T04:17:42;5.57;;;0.22;;
59649;SDS011;46162;57.568;25.814;2023-09-07T04:20:11;4.75;;;0.57;;
59649;SDS011;46162;57.568;25.814;2023-09-07T04:22:40;4.50;;;0.30;;
59649;SDS011;46162;57.568;25.814;2023-09-07T04:25:09;3.00;;;0.30;;
59649;SDS011;46162;57.568;25.814;2023-09-07T04:27:38;2.90;;;0.38;;
59649;SDS011;46162;57.568;25.814;2023-09-07T04:30:09;2.60;;;0.30;;
59649;SDS011;46162;57.568;25.814;2023-09-07T04:32:39;6.60;;;0.40;;
59649;SDS011;46162;57.568;25.814;2023-09-07T04:35:08;4.80;;;0.47;;
59649;SDS011;46162;57.568;25.814;2023-09-07T04:37:37;4.50;;;0.40;;
59649;SDS011;46162;57.568;25.814;2023-09-07T04:40:06;5.93;;;0.40;;
59649;SDS011;46162;57.568;25.814;2023-09-07T04:42:35;3.08;;;0.30;;
59649;SDS011;46162;57.568;25.814;2023-09-07T04:45:05;7.38;;;0.40;;
59649;SDS011;46162;57.568;25.814;2023-09-07T04:47:37;3.78;;;0.22;;
59649;SDS011;46162;57.568;25.814;2023-09-07T04:50:06;6.25;;;0.45;;
59649;SDS011;46162;57.568;25.814;2023-09-07T04:52:35;7.60;;;0.32;;
59649;SDS011;46162;57.568;25.814;2023-09-07T04:55:05;3.55;;;0.45;;
59649;SDS011;46162;57.568;25.814;2023-09-07T04:57:35;8.45;;;0.50;;
59649;SDS011;46162;57.568;25.814;2023-09-07T05:00:06;5.05;;;0.35;;
59649;SDS011;46162;57.568;25.814;2023-09-07T05:02:38;3.75;;;0.40;;
59649;SDS011;46162;57.568;25.814;2023-09-07T05:05:09;3.75;;;0.32;;
59649;SDS011;46162;57.568;25.814;2023-09-07T05:07:38;5.93;;;0.60;;
59649;SDS011;46162;57.568;25.814;2023-09-07T05:10:08;4.20;;;0.68;;
59649;SDS011;46162;57.568;25.814;2023-09-07T05:12:40;5.85;;;0.40;;
59649;SDS011;46162;57.568;25.814;2023-09-07T05:15:09;10.07;;;0.77;;
59649;SDS011;46162;57.568;25.814;2023-09-07T05:17:39;11.27;;;0.60;;
59649;SDS011;46162;57.568;25.814;2023-09-07T05:20:09;6.43;;;0.70;;
59649;SDS011;46162;57.568;25.814;2023-09-07T05:22:38;4.45;;;0.30;;
59649;SDS011;46162;57.568;25.814;2023-09-07T05:25:08;6.45;;;0.30;;
59649;SDS011;46162;57.568;25.814;2023-09-07T05:27:38;7.55;;;0.60;;
59649;SDS011;46162;57.568;25.814;2023-09-07T05:30:07;6.45;;;0.50;;
59649;SDS011;46162;57.568;25.814;2023-09-07T05:32:37;7.55;;;0.60;;
59649;SDS011;46162;57.568;25.814;2023-09-07T05:35:08;5.10;;;0.73;;
59649;SDS011;46162;57.568;25.814;2023-09-07T05:37:38;6.65;;;0.50;;
59649;SDS011;46162;57.568;25.814;2023-09-07T05:40:07;9.13;;;0.50;;
59649;SDS011;46162;57.568;25.814;2023-09-07T05:42:37;5.63;;;0.20;;
59649;SDS011;46162;57.568;25.814;2023-09-07T05:45:06;3.47;;;0.35;;
59649;SDS011;46162;57.568;25.814;2023-09-07T05:47:36;4.15;;;0.52;;
59649;SDS011;46162;57.568;25.814;2023-09-07T05:50:06;4.70;;;0.30;;
59649;SDS011;46162;57.568;25.814;2023-09-07T05:52:36;6.22;;;0.73;;
59649;SDS011;46162;57.568;25.814;2023-09-07T05:55:05;5.32;;;0.50;;
59649;SDS011;46162;57.568;25.814;2023-09-07T05:57:35;5.57;;;0.30;;
59649;SDS011;46162;57.568;25.814;2023-09-07T06:00:04;7.22;;;0.70;;
59649;SDS011;46162;57.568;25.814;2023-09-07T06:02:38;4.82;;;0.38;;
59649;SDS011;46162;57.568;25.814;2023-09-07T06:05:11;7.03;;;0.47;;
59649;SDS011;46162;57.568;25.814;2023-09-07T06:07:40;4.95;;;0.70;;
59649;SDS011;46162;57.568;25.814;2023-09-07T06:10:09;8.88;;;0.50;;
59649;SDS011;46162;57.568;25.814;2023-09-07T06:12:39;6.55;;;0.47;;
59649;SDS011;46162;57.568;25.814;2023-09-07T06:15:08;4.72;;;0.73;;
59649;SDS011;46162;57.568;25.814;2023-09-07T06:17:37;6.57;;;0.50;;
59649;SDS011;46162;57.568;25.814;2023-09-07T06:20:07;10.20;;;0.40;;
59649;SDS011;46162;57.568;25.814;2023-09-07T06:22:39;5.95;;;0.35;;
59649;SDS011;46162;57.568;25.814;2023-09-07T06:25:08;10.40;;;0.52;;
59649;SDS011;46162;57.568;25.814;2023-09-07T06:27:37;7.13;;;0.57;;
59649;SDS011;46162;57.568;25.814;2023-09-07T06:30:07;4.28;;;0.40;;
59649;SDS011;46162;57.568;25.814;2023-09-07T06:32:38;7.53;;;0.68;;
59649;SDS011;46162;57.568;25.814;2023-09-07T06:35:08;6.30;;;0.45;;
59649;SDS011;46162;57.568;25.814;2023-09-07T06:37:40;9.07;;;0.88;;
59649;SDS011;46162;57.568;25.814;2023-09-07T06:40:12;8.02;;;0.43;;
59649;SDS011;46162;57.568;25.814;2023-09-07T06:42:43;6.93;;;0.50;;
59649;SDS011;46162;57.568;25.814;2023-09-07T06:45:15;11.93;;;0.50;;
59649;SDS011;46162;57.568;25.814;2023-09-07T06:47:44;7.65;;;0.50;;
59649;SDS011;46162;57.568;25.814;2023-09-07T06:50:13;9.40;;;0.65;;
59649;SDS011;46162;57.568;25.814;2023-09-07T06:52:43;6.95;;;0.60;;
59649;SDS011;46162;57.568;25.814;2023-09-07T06:55:12;11.10;;;0.45;;
59649;SDS011;46162;57.568;25.814;2023-09-07T06:57:41;6.03;;;0.43;;
59649;SDS011;46162;57.568;25.814;2023-09-07T07:00:10;6.57;;;0.50;;
59649;SDS011;46162;57.568;25.814;2023-09-07T07:02:40;12.68;;;0.70;;
59649;SDS011;46162;57.568;25.814;2023-09-07T07:05:10;8.63;;;0.60;;
59649;SDS011;46162;57.568;25.814;2023-09-07T07:07:40;5.83;;;0.47;;
59649;SDS011;46162;57.568;25.814;2023-09-07T07:10:10;13.85;;;0.68;;
59649;SDS011;46162;57.568;25.814;2023-09-07T07:12:40;11.00;;;0.30;;
59649;SDS011;46162;57.568;25.814;2023-09-07T07:15:09;5.10;;;0.25;;
59649;SDS011;46162;57.568;25.814;2023-09-07T07:17:39;11.48;;;0.57;;
59649;SDS011;46162;57.568;25.814;2023-09-07T07:20:08;6.00;;;0.30;;
59649;SDS011;46162;57.568;25.814;2023-09-07T07:22:38;8.02;;;0.20;;
59649;SDS011;46162;57.568;25.814;2023-09-07T07:25:07;11.43;;;0.50;;
59649;SDS011;46162;57.568;25.814;2023-09-07T07:27:39;11.43;;;0.30;;
59649;SDS011;46162;57.568;25.814;2023-09-07T07:30:08;14.63;;;0.30;;
59649;SDS011;46162;57.568;25.814;2023-09-07T07:32:39;7.38;;;0.30;;
59649;SDS011;46162;57.568;25.814;2023-09-07T07:35:08;4.97;;;0.30;;
59649;SDS011;46162;57.568;25.814;2023-09-07T07:37:37;8.07;;;0.20;;
59649;SDS011;46162;57.568;25.814;2023-09-07T07:40:06;8.95;;;0.40;;
59649;SDS011;46162;57.568;25.814;2023-09-07T07:42:36;6.63;;;0.20;;
59649;SDS011;46162;57.568;25.814;2023-09-07T07:45:06;6.13;;;0.30;;
59649;SDS011;46162;57.568;25.814;2023-09-07T07:47:36;8.02;;;0.20;;
59649;SDS011;46162;57.568;25.814;2023-09-07T07:50:05;4.78;;;0.20;;
59649;SDS011;46162;57.568;25.814;2023-09-07T07:52:34;9.93;;;0.57;;
59649;SDS011;46162;57.568;25.814;2023-09-07T07:55:04;6.75;;;0.35;;
59649;SDS011;46162;57.568;25.814;2023-09-07T07:57:33;8.75;;;0.35;;
59649;SDS011;46162;57.568;25.814;2023-09-07T08:00:03;5.97;;;0.20;;
59649;SDS011;46162;57.568;25.814;2023-09-07T08:02:47;6.18;;;0.13;;
59649;SDS011;46162;57.568;25.814;2023-09-07T08:05:16;9.45;;;0.22;;
59649;SDS011;46162;57.568;25.814;2023-09-07T08:07:45;7.38;;;0.22;;
59649;SDS011;46162;57.568;25.814;2023-09-07T08:10:13;10.10;;;0.28;;
59649;SDS011;46162;57.568;25.814;2023-09-07T08:12:43;8.77;;;0.35;;
59649;SDS011;46162;57.568;25.814;2023-09-07T08:15:13;7.45;;;0.20;;
59649;SDS011;46162;57.568;25.814;2023-09-07T08:17:42;4.95;;;0.10;;
59649;SDS011;46162;57.568;25.814;2023-09-07T08:20:11;11.07;;;0.20;;
59649;SDS011;46162;57.568;25.814;2023-09-07T08:22:41;5.30;;;0.20;;
59649;SDS011;46162;57.568;25.814;2023-09-07T08:25:11;8.05;;;0.25;;
59649;SDS011;46162;57.568;25.814;2023-09-07T08:27:41;7.13;;;0.20;;
59649;SDS011;46162;57.568;25.814;2023-09-07T08:30:13;3.88;;;0.10;;
59649;SDS011;46162;57.568;25.814;2023-09-07T08:32:44;7.50;;;0.20;;
59649;SDS011;46162;57.568;25.814;2023-09-07T08:35:14;8.95;;;0.25;;
59649;SDS011;46162;57.568;25.814;2023-09-07T08:37:44;3.53;;;0.10;;
59649;SDS011;46162;57.568;25.814;2023-09-07T08:40:12;6.57;;;0.20;;
59649;SDS011;46162;57.568;25.814;2023-09-07T08:42:44;5.72;;;0.22;;
59649;SDS011;46162;57.568;25.814;2023-09-07T08:45:14;6.55;;;0.20;;
59649;SDS011;46162;57.568;25.814;2023-09-07T08:47:49;5.30;;;0.20;;
59649;SDS011;46162;57.568;25.814;2023-09-07T08:50:20;11.30;;;0.10;;
59649;SDS011;46162;57.568;25.814;2023-09-07T08:52:51;8.35;;;0.28;;
59649;SDS011;46162;57.568;25.814;2023-09-07T08:55:20;8.07;;;0.15;;
59649;SDS011;46162;57.568;25.814;2023-09-07T08:57:50;7.30;;;0.30;;
59649;SDS011;46162;57.568;25.814;2023-09-07T09:00:20;2.67;;;0.10;;
59649;SDS011;46162;57.568;25.814;2023-09-07T09:02:50;3.78;;;0.10;;
59649;SDS011;46162;57.568;25.814;2023-09-07T09:05:23;7.13;;;0.13;;
59649;SDS011;46162;57.568;25.814;2023-09-07T09:08:00;5.03;;;0.15;;
59649;SDS011;46162;57.568;25.814;2023-09-07T09:10:30;6.65;;;0.30;;
59649;SDS011;46162;57.568;25.814;2023-09-07T09:12:58;8.52;;;0.15;;
59649;SDS011;46162;57.568;25.814;2023-09-07T09:15:29;3.00;;;0.10;;
59649;SDS011;46162;57.568;25.814;2023-09-07T09:17:57;6.93;;;0.15;;
59649;SDS011;46162;57.568;25.814;2023-09-07T09:20:26;3.50;;;0.10;;
59649;SDS011;46162;57.568;25.814;2023-09-07T09:22:55;7.00;;;0.10;;
59649;SDS011;46162;57.568;25.814;2023-09-07T09:25:24;6.07;;;0.10;;
59649;SDS011;46162;57.568;25.814;2023-09-07T09:27:53;4.20;;;0.10;;
59649;SDS011;46162;57.568;25.814;2023-09-07T09:30:22;11.98;;;0.10;;
59649;SDS011;46162;57.568;25.814;2023-09-07T09:32:52;5.13;;;0.10;;
59649;SDS011;46162;57.568;25.814;2023-09-07T09:35:22;6.18;;;0.38;;
59649;SDS011;46162;57.568;25.814;2023-09-07T09:37:51;3.50;;;0.10;;
59649;SDS011;46162;57.568;25.814;2023-09-07T09:40:20;3.97;;;0.10;;
59649;SDS011;46162;57.568;25.814;2023-09-07T09:42:49;21.08;;;0.40;;
59649;SDS011;46162;57.568;25.814;2023-09-07T09:45:22;7.10;;;0.20;;
59649;SDS011;46162;57.568;25.814;2023-09-07T09:47:53;4.57;;;0.10;;
59649;SDS011;46162;57.568;25.814;2023-09-07T09:50:24;5.78;;;0.15;;
59649;SDS011;46162;57.568;25.814;2023-09-07T09:52:52;6.07;;;0.10;;
59649;SDS011;46162;57.568;25.814;2023-09-07T09:55:21;5.25;;;0.10;;
59649;SDS011;46162;57.568;25.814;2023-09-07T09:57:50;7.25;;;0.10;;
59649;SDS011;46162;57.568;25.814;2023-09-07T10:00:19;8.98;;;0.30;;
59649;SDS011;46162;57.568;25.814;2023-09-07T10:03:00;5.20;;;0.10;;
59649;SDS011;46162;57.568;25.814;2023-09-07T10:05:32;4.47;;;0.30;;
59649;SDS011;46162;57.568;25.814;2023-09-07T10:08:08;6.70;;;0.30;;
59649;SDS011;46162;57.568;25.814;2023-09-07T10:10:41;4.10;;;0.20;;
59649;SDS011;46162;57.568;25.814;2023-09-07T10:13:13;7.28;;;0.13;;
59649;SDS011;46162;57.568;25.814;2023-09-07T10:15:43;6.32;;;0.10;;
59649;SDS011;46162;57.568;25.814;2023-09-07T10:18:14;3.50;;;0.10;;
59649;SDS011;46162;57.568;25.814;2023-09-07T10:20:53;4.70;;;0.20;;
59649;SDS011;46162;57.568;25.814;2023-09-07T10:23:22;9.05;;;0.17;;
59649;SDS011;46162;57.568;25.814;2023-09-07T10:26:02;6.28;;;0.17;;
59649;SDS011;46162;57.568;25.814;2023-09-07T10:28:33;4.15;;;0.10;;
59649;SDS011;46162;57.568;25.814;2023-09-07T10:31:02;6.70;;;0.15;;
59649;SDS011;46162;57.568;25.814;2023-09-07T10:33:34;12.82;;;0.20;;
59649;SDS011;46162;57.568;25.814;2023-09-07T10:36:05;6.35;;;0.17;;
59649;SDS011;46162;57.568;25.814;2023-09-07T10:38:35;4.68;;;0.10;;
59649;SDS011;46162;57.568;25.814;2023-09-07T10:43:34;4.80;;;0.10;;
59649;SDS011;46162;57.568;25.814;2023-09-07T10:46:03;3.65;;;0.10;;
59649;SDS011;46162;57.568;25.814;2023-09-07T10:48:33;3.78;;;0.10;;
59649;SDS011;46162;57.568;25.814;2023-09-07T10:51:02;3.00;;;0.10;;
59649;SDS011;46162;57.568;25.814;2023-09-07T10:53:31;9.93;;;0.30;;
59649;SDS011;46162;57.568;25.814;2023-09-07T10:56:02;8.15;;;0.20;;
59649;SDS011;46162;57.568;25.814;2023-09-07T10:58:32;6.60;;;0.10;;
59649;SDS011;46162;57.568;25.814;2023-09-07T11:01:02;5.67;;;0.27;;
59649;SDS011;46162;57.568;25.814;2023-09-07T11:03:31;5.07;;;0.10;;
59649;SDS011;46162;57.568;25.814;2023-09-07T11:06:03;2.53;;;0.10;;
59649;SDS011;46162;57.568;25.814;2023-09-07T11:08:34;2.83;;;0.10;;
59649;SDS011;46162;57.568;25.814;2023-09-07T11:11:03;1.75;;;0.00;;
59649;SDS011;46162;57.568;25.814;2023-09-07T11:13:33;2.03;;;0.00;;
59649;SDS011;46162;57.568;25.814;2023-09-07T11:16:02;5.32;;;0.10;;
59649;SDS011;46162;57.568;25.814;2023-09-07T11:18:35;12.13;;;0.20;;
59649;SDS011;46162;57.568;25.814;2023-09-07T11:21:06;3.10;;;0.10;;
59649;SDS011;46162;57.568;25.814;2023-09-07T11:23:35;4.00;;;0.10;;
59649;SDS011;46162;57.568;25.814;2023-09-07T11:26:05;10.13;;;0.20;;
59649;SDS011;46162;57.568;25.814;2023-09-07T11:28:34;6.38;;;0.28;;
59649;SDS011;46162;57.568;25.814;2023-09-07T11:31:03;9.50;;;0.32;;
59649;SDS011;46162;57.568;25.814;2023-09-07T11:33:32;13.27;;;0.15;;
59649;SDS011;46162;57.568;25.814;2023-09-07T11:36:02;8.52;;;0.10;;
59649;SDS011;46162;57.568;25.814;2023-09-07T11:38:36;6.27;;;0.10;;
59649;SDS011;46162;57.568;25.814;2023-09-07T11:41:05;4.10;;;0.10;;
59649;SDS011;46162;57.568;25.814;2023-09-07T11:43:34;5.05;;;0.10;;
59649;SDS011;46162;57.568;25.814;2023-09-07T11:46:04;5.20;;;0.10;;
59649;SDS011;46162;57.568;25.814;2023-09-07T11:48:36;2.05;;;0.10;;
59649;SDS011;46162;57.568;25.814;2023-09-07T11:51:04;5.88;;;0.20;;
59649;SDS011;46162;57.568;25.814;2023-09-07T11:53:35;5.68;;;0.20;;
59649;SDS011;46162;57.568;25.814;2023-09-07T11:56:04;18.80;;;0.30;;
59649;SDS011;46162;57.568;25.814;2023-09-07T11:58:33;4.80;;;0.00;;
59649;SDS011;46162;57.568;25.814;2023-09-07T12:01:01;4.13;;;0.22;;
59649;SDS011;46162;57.568;25.814;2023-09-07T12:03:31;9.45;;;0.17;;
59649;SDS011;46162;57.568;25.814;2023-09-07T12:06:00;3.75;;;0.20;;
59649;SDS011;46162;57.568;25.814;2023-09-07T12:08:29;3.47;;;0.10;;
59649;SDS011;46162;57.568;25.814;2023-09-07T12:11:00;2.88;;;0.00;;
59649;SDS011;46162;57.568;25.814;2023-09-07T12:13:29;5.57;;;0.10;;
59649;SDS011;46162;57.568;25.814;2023-09-07T12:15:58;4.47;;;0.20;;
59649;SDS011;46162;57.568;25.814;2023-09-07T12:18:28;3.47;;;0.00;;
59649;SDS011;46162;57.568;25.814;2023-09-07T12:20:57;4.55;;;0.05;;
59649;SDS011;46162;57.568;25.814;2023-09-07T12:23:26;5.28;;;0.10;;
59649;SDS011;46162;57.568;25.814;2023-09-07T12:25:56;5.10;;;0.10;;
59649;SDS011;46162;57.568;25.814;2023-09-07T12:28:26;3.85;;;0.10;;
59649;SDS011;46162;57.568;25.814;2023-09-07T12:30:55;1.55;;;0.00;;
59649;SDS011;46162;57.568;25.814;2023-09-07T12:33:25;4.87;;;0.10;;
59649;SDS011;46162;57.568;25.814;2023-09-07T12:35:57;5.78;;;0.10;;
59649;SDS011;46162;57.568;25.814;2023-09-07T12:38:27;6.68;;;0.10;;
59649;SDS011;46162;57.568;25.814;2023-09-07T12:40:56;4.50;;;0.10;;
59649;SDS011;46162;57.568;25.814;2023-09-07T12:43:24;2.67;;;0.00;;
59649;SDS011;46162;57.568;25.814;2023-09-07T12:45:54;4.20;;;0.00;;
59649;SDS011;46162;57.568;25.814;2023-09-07T12:48:23;2.08;;;0.00;;
59649;SDS011;46162;57.568;25.814;2023-09-07T12:50:53;3.55;;;0.32;;
59649;SDS011;46162;57.568;25.814;2023-09-07T12:53:23;9.20;;;0.20;;
59649;SDS011;46162;57.568;25.814;2023-09-07T12:55:53;6.80;;;0.10;;
59649;SDS011;46162;57.568;25.814;2023-09-07T12:58:22;4.63;;;0.10;;
59649;SDS011;46162;57.568;25.814;2023-09-07T13:00:51;3.78;;;0.30;;
59649;SDS011;46162;57.568;25.814;2023-09-07T13:03:21;4.13;;;0.10;;
59649;SDS011;46162;57.568;25.814;2023-09-07T13:05:50;4.30;;;0.15;;
59649;SDS011;46162;57.568;25.814;2023-09-07T13:08:19;5.97;;;0.28;;
59649;SDS011;46162;57.568;25.814;2023-09-07T13:10:48;5.97;;;0.17;;
59649;SDS011;46162;57.568;25.814;2023-09-07T13:13:17;4.03;;;0.10;;
59649;SDS011;46162;57.568;25.814;2023-09-07T13:15:45;10.57;;;0.10;;
59649;SDS011;46162;57.568;25.814;2023-09-07T13:18:14;7.30;;;0.10;;
59649;SDS011;46162;57.568;25.814;2023-09-07T13:20:44;6.18;;;0.10;;
59649;SDS011;46162;57.568;25.814;2023-09-07T13:23:15;4.78;;;0.10;;
59649;SDS011;46162;57.568;25.814;2023-09-07T13:25:44;2.78;;;0.10;;
59649;SDS011;46162;57.568;25.814;2023-09-07T13:28:13;7.10;;;0.20;;
59649;SDS011;46162;57.568;25.814;2023-09-07T13:30:41;3.17;;;0.10;;
59649;SDS011;46162;57.568;25.814;2023-09-07T13:33:10;6.78;;;0.10;;
59649;SDS011;46162;57.568;25.814;2023-09-07T13:35:42;4.82;;;0.00;;
59649;SDS011;46162;57.568;25.814;2023-09-07T13:38:12;7.93;;;0.15;;
59649;SDS011;46162;57.568;25.814;2023-09-07T13:40:41;7.05;;;0.10;;
59649;SDS011;46162;57.568;25.814;2023-09-07T13:43:10;4.45;;;0.10;;
59649;SDS011;46162;57.568;25.814;2023-09-07T13:45:38;8.45;;;0.22;;
59649;SDS011;46162;57.568;25.814;2023-09-07T13:48:07;6.93;;;0.10;;
59649;SDS011;46162;57.568;25.814;2023-09-07T13:50:36;6.97;;;0.10;;
59649;SDS011;46162;57.568;25.814;2023-09-07T13:53:05;2.85;;;0.00;;
59649;SDS011;46162;57.568;25.814;2023-09-07T13:55:35;3.63;;;0.10;;
59649;SDS011;46162;57.568;25.814;2023-09-07T13:58:06;2.58;;;0.08;;
59649;SDS011;46162;57.568;25.814;2023-09-07T14:00:35;7.50;;;0.10;;
59649;SDS011;46162;57.568;25.814;2023-09-07T14:03:04;8.63;;;0.20;;
59649;SDS011;46162;57.568;25.814;2023-09-07T14:05:32;4.85;;;0.20;;
59649;SDS011;46162;57.568;25.814;2023-09-07T14:08:02;7.57;;;0.10;;
59649;SDS011;46162;57.568;25.814;2023-09-07T14:10:31;6.22;;;0.20;;
59649;SDS011;46162;57.568;25.814;2023-09-07T14:13:01;7.05;;;0.15;;
59649;SDS011;46162;57.568;25.814;2023-09-07T14:15:30;5.43;;;0.03;;
59649;SDS011;46162;57.568;25.814;2023-09-07T14:17:59;7.22;;;0.10;;
59649;SDS011;46162;57.568;25.814;2023-09-07T14:20:28;6.97;;;0.20;;
59649;SDS011;46162;57.568;25.814;2023-09-07T14:22:57;3.10;;;0.20;;
59649;SDS011;46162;57.568;25.814;2023-09-07T14:25:27;6.50;;;0.10;;
59649;SDS011;46162;57.568;25.814;2023-09-07T14:27:56;5.63;;;0.10;;
59649;SDS011;46162;57.568;25.814;2023-09-07T14:30:26;4.43;;;0.05;;
59649;SDS011;46162;57.568;25.814;2023-09-07T14:32:55;5.88;;;0.10;;
59649;SDS011;46162;57.568;25.814;2023-09-07T14:35:24;3.72;;;0.00;;
59649;SDS011;46162;57.568;25.814;2023-09-07T14:37:53;5.13;;;0.10;;
59649;SDS011;46162;57.568;25.814;2023-09-07T14:40:21;5.13;;;0.10;;
59649;SDS011;46162;57.568;25.814;2023-09-07T14:42:50;5.30;;;0.10;;
59649;SDS011;46162;57.568;25.814;2023-09-07T14:45:20;4.13;;;0.10;;
59649;SDS011;46162;57.568;25.814;2023-09-07T14:47:50;4.00;;;0.10;;
59649;SDS011;46162;57.568;25.814;2023-09-07T14:50:19;4.97;;;0.20;;